• Join FlightAware (Why Join?)
  • Login
  • US Flag 
Gobble Gobble! 
12:17PM EST


 

Airport Tracker/Info


-or-


 

Live Flight TrackerFlight Track Log ✈ SKW5398 ✈ 26-Apr-2012 ✈ KSMF - KSFO

Flight Track Log - Related Links

Times and Time Zones

All times are in EDT time to prevent confusion due to time zone crossing. See the SKW5398 flight status page for this flight to view local times or setup timezone preferences in your user account.

Time Position Orientation Groundspeed Altitude Reporting Facility
EDT Latitude Longitude Course Direction KTS MPH feet Rate Location/Type
12:58PM 38.6667 -121.6000 159° South 130 150 1,600  Level Northern Cal TRACON
12:59PM 38.6333 -121.5833 165° South 173 199 3,100 1,500 Climbing Northern Cal TRACON
01:00PM 38.5833 -121.5667 180° South 180 207 4,500 1,440 Climbing Northern Cal TRACON
01:01PM 38.5333 -121.5667 169° South 187 215 6,100 1,560 Climbing Northern Cal TRACON
01:02PM 38.4667 -121.5500 180° South 186 214 7,900 1,440 Climbing Northern Cal TRACON
01:03PM 38.4167 -121.5500 180° South 203 234 9,000 600 Climbing Northern Cal TRACON
01:04PM 38.3500 -121.5500 165° South 225 259 9,100  Climbing Northern Cal TRACON
01:05PM 38.3000 -121.5333 174° South 227 261 9,100  Level Northern Cal TRACON
01:08PM 38.1667 -121.5167 169° South 223 257 9,100  Level Northern Cal TRACON
01:09PM 38.1000 -121.5000 180° South 221 254 9,100 -60 Level Northern Cal TRACON
01:10PM 38.0500 -121.5000 169° South 229 264 9,000 -60 Descending Northern Cal TRACON
01:11PM 37.9833 -121.4833 180° South 229 264 9,000  Level Northern Cal TRACON
01:12PM 37.9167 -121.4833 169° South 226 260 9,000  Level Northern Cal TRACON
01:13PM 37.8500 -121.4667 180° South 223 257 9,000  Level Northern Cal TRACON
01:14PM 37.8000 -121.4667 169° South 219 252 9,000  Level Northern Cal TRACON
01:15PM 37.7333 -121.4500 180° South 222 255 9,000  Level Northern Cal TRACON
01:16PM 37.6667 -121.4500 230° Southwest 236 272 9,000  Level Northern Cal TRACON
01:17PM 37.6333 -121.5000 232° Southwest 227 261 9,000  Level Northern Cal TRACON
01:19PM 37.5500 -121.6333 247° West 218 251 9,100  Climbing Northern Cal TRACON
01:22PM 37.5000 -121.7833 253° West 206 237 9,100 -240 Level Northern Cal TRACON
01:23PM 37.4833 -121.8500 270° West 183 211 8,300 -600 Descending Northern Cal TRACON
01:24PM 37.4833 -121.9167 270° West 174 200 7,900 -600 Descending Northern Cal TRACON
01:25PM 37.4833 -121.9667 288° West 171 197 7,100 -480 Descending Northern Cal TRACON
01:26PM 37.5000 -122.0333 293° West 178 205 7,000 -720 Descending Northern Cal TRACON
01:27PM 37.5167 -122.0833 288° West 171 197 5,700 -1,560 Descending Northern Cal TRACON
01:28PM 37.5333 -122.1500 302° West 181 208 3,900 -1,320 Descending Northern Cal TRACON
01:30PM 37.5833 -122.2500 302° West 152 175 1,900 -1,020 Descending Northern Cal TRACON